Time;durP1;ratioP1;P1;durP2;ratioP2;P2;SDS_P1;SDS_P2;PMS_P1;PMS_P2;Temp;Humidity;BMP_temperature;BMP_pressure;BME280_temperature;BME280_humidity;BME280_pressure;Samples;Min_cycle;Max_cycle;Signal;HPM_P1;HPM_P2
2020/12/10 00:00:10;;;;;;;5.05;2.70;;;2.90;99.90;;;;;;5095238;28;20417;-58
2020/12/10 00:02:37;;;;;;;8.05;3.25;;;3.00;99.90;;;;;;5095529;28;20410;-58
2020/12/10 00:05:07;;;;;;;6.15;2.42;;;3.20;99.90;;;;;;5092621;28;20432;-58
2020/12/10 00:07:34;;;;;;;6.28;3.00;;;3.20;99.90;;;;;;5093961;28;20417;-58
2020/12/10 00:10:00;;;;;;;6.93;3.33;;;3.10;99.90;;;;;;5094060;28;20426;-58
2020/12/10 00:12:27;;;;;;;7.13;3.13;;;3.20;99.90;;;;;;5093665;28;20471;-59
2020/12/10 00:14:54;;;;;;;6.40;2.97;;;3.30;99.90;;;;;;5094365;28;20755;-59
2020/12/10 00:17:28;;;;;;;7.15;2.58;;;3.30;99.90;;;;;;5094198;28;20424;-57
2020/12/10 00:19:55;;;;;;;6.00;2.55;;;3.40;99.90;;;;;;5094884;28;20705;-59
2020/12/10 00:22:24;;;;;;;6.20;3.00;;;3.50;99.90;;;;;;5095063;28;20406;-57
2020/12/10 00:24:51;;;;;;;7.67;2.67;;;3.40;99.90;;;;;;5095865;28;20428;-57
2020/12/10 00:27:22;;;;;;;7.90;3.35;;;3.40;99.90;;;;;;5095658;28;20402;-57
2020/12/10 00:29:49;;;;;;;7.25;2.38;;;3.30;99.90;;;;;;5095556;28;20724;-57
2020/12/10 00:32:17;;;;;;;6.43;2.72;;;3.40;99.90;;;;;;5095030;28;20440;-57
2020/12/10 00:34:44;;;;;;;6.57;3.33;;;3.30;99.90;;;;;;5095281;28;20421;-57
2020/12/10 00:37:11;;;;;;;7.35;2.90;;;3.20;99.90;;;;;;5094467;28;20472;-57
2020/12/10 00:39:39;;;;;;;8.30;3.13;;;3.20;99.90;;;;;;5095693;28;20426;-58
2020/12/10 00:42:06;;;;;;;7.50;3.00;;;3.10;99.90;;;;;;5094799;28;20418;-58
2020/12/10 00:44:33;;;;;;;5.20;2.72;;;3.10;99.90;;;;;;5093740;28;20422;-58
2020/12/10 00:47:00;;;;;;;6.40;2.78;;;3.10;99.90;;;;;;5095114;28;20420;-58
2020/12/10 00:49:27;;;;;;;7.83;2.80;;;3.10;99.90;;;;;;5095136;28;20497;-58
2020/12/10 00:51:54;;;;;;;5.97;3.20;;;3.00;99.90;;;;;;5094585;28;20414;-58
2020/12/10 00:54:21;;;;;;;6.93;2.85;;;2.90;99.90;;;;;;5095100;28;20434;-58
2020/12/10 00:56:49;;;;;;;6.80;3.10;;;2.70;99.90;;;;;;5094777;28;20675;-58
2020/12/10 00:59:16;;;;;;;7.50;3.33;;;2.80;99.90;;;;;;5095013;28;20725;-58
2020/12/10 01:01:44;;;;;;;5.13;2.50;;;2.90;99.90;;;;;;5095391;28;20414;-58
2020/12/10 01:04:12;;;;;;;6.78;2.90;;;2.90;99.90;;;;;;5095086;28;20817;-58
2020/12/10 01:06:39;;;;;;;6.03;2.40;;;3.00;99.90;;;;;;5094540;28;20425;-58
2020/12/10 01:09:07;;;;;;;5.80;2.83;;;2.90;99.90;;;;;;5094978;28;20422;-58
2020/12/10 01:11:35;;;;;;;6.88;2.67;;;2.80;99.90;;;;;;5094614;28;20425;-58
2020/12/10 01:14:03;;;;;;;4.50;1.80;;;2.60;99.90;;;;;;5094461;28;20426;-58
2020/12/10 01:16:30;;;;;;;6.43;2.10;;;2.70;99.90;;;;;;5093351;28;20840;-58
2020/12/10 01:18:56;;;;;;;5.70;2.90;;;2.70;99.90;;;;;;5094122;28;20830;-58
2020/12/10 01:21:31;;;;;;;3.95;2.00;;;2.80;99.90;;;;;;5094770;28;20418;-58
2020/12/10 01:23:58;;;;;;;6.47;2.83;;;3.00;99.90;;;;;;5095064;28;20822;-59
2020/12/10 01:26:25;;;;;;;6.40;2.30;;;3.00;99.90;;;;;;5094813;28;20425;-58
2020/12/10 01:28:52;;;;;;;4.60;1.98;;;2.90;99.90;;;;;;5094501;28;20418;-58
2020/12/10 01:31:20;;;;;;;6.43;2.80;;;3.00;99.90;;;;;;5094611;28;20416;-58
2020/12/10 01:33:46;;;;;;;4.55;2.20;;;3.10;99.90;;;;;;5094823;28;20448;-58
2020/12/10 01:36:17;;;;;;;6.38;2.25;;;3.10;99.90;;;;;;5094528;28;20422;-59
2020/12/10 01:38:44;;;;;;;6.75;2.33;;;3.10;99.90;;;;;;5094996;28;20437;-59
2020/12/10 01:41:11;;;;;;;5.95;2.20;;;3.10;99.90;;;;;;5094699;28;20870;-59
2020/12/10 01:43:38;;;;;;;6.20;2.67;;;2.80;99.90;;;;;;5094423;28;20426;-58
2020/12/10 01:46:05;;;;;;;6.22;2.47;;;2.70;99.90;;;;;;5094299;28;20718;-59
2020/12/10 01:48:33;;;;;;;4.75;1.50;;;2.70;99.90;;;;;;5094672;28;20505;-58
2020/12/10 01:51:01;;;;;;;4.78;2.15;;;2.70;99.90;;;;;;5094098;28;20426;-58
2020/12/10 01:53:27;;;;;;;3.78;1.75;;;2.70;99.90;;;;;;5094039;28;20440;-58
2020/12/10 01:55:54;;;;;;;5.60;2.90;;;2.60;99.90;;;;;;5094454;28;20414;-59
2020/12/10 01:58:21;;;;;;;6.25;2.90;;;2.60;99.90;;;;;;5094261;28;20862;-58
2020/12/10 02:00:50;;;;;;;4.78;1.80;;;2.60;99.90;;;;;;5093842;28;20435;-59
2020/12/10 02:03:17;;;;;;;6.35;2.20;;;2.70;99.90;;;;;;5092834;28;20748;-59
2020/12/10 02:05:45;;;;;;;4.05;1.95;;;2.80;99.90;;;;;;5092664;28;20736;-59
2020/12/10 02:08:12;;;;;;;3.55;1.73;;;2.80;99.90;;;;;;5092228;28;20426;-59
2020/12/10 02:10:39;;;;;;;4.43;2.17;;;3.00;99.90;;;;;;5091171;28;20424;-58
2020/12/10 02:13:06;;;;;;;4.72;1.90;;;2.90;99.90;;;;;;5092314;28;20433;-59
2020/12/10 02:15:33;;;;;;;4.43;2.03;;;2.90;99.90;;;;;;5095036;28;20418;-58
2020/12/10 02:18:01;;;;;;;4.93;2.10;;;3.10;99.90;;;;;;5095015;28;20429;-59
2020/12/10 02:20:29;;;;;;;4.57;2.08;;;3.10;99.90;;;;;;5095103;28;20847;-59
2020/12/10 02:23:04;;;;;;;5.13;2.00;;;3.00;99.90;;;;;;5094743;28;20409;-59
2020/12/10 02:25:31;;;;;;;7.35;3.17;;;3.00;99.90;;;;;;5095418;28;20406;-58
2020/12/10 02:27:59;;;;;;;4.95;1.80;;;3.10;99.90;;;;;;5096060;28;20421;-58
2020/12/10 02:30:26;;;;;;;5.57;2.00;;;2.90;99.90;;;;;;5097095;28;20414;-59
2020/12/10 02:32:58;;;;;;;4.82;2.08;;;2.80;99.90;;;;;;5096394;28;20440;-58
2020/12/10 02:35:26;;;;;;;4.72;1.90;;;2.80;99.90;;;;;;5096996;28;20416;-58
2020/12/10 02:37:55;;;;;;;4.13;1.92;;;2.90;99.90;;;;;;5097950;28;20426;-59
2020/12/10 02:40:24;;;;;;;5.75;2.35;;;2.70;99.90;;;;;;5097609;28;20420;-59
2020/12/10 02:42:50;;;;;;;6.32;2.50;;;2.80;99.90;;;;;;5097255;28;20852;-58
2020/12/10 02:45:18;;;;;;;6.22;2.30;;;2.80;99.90;;;;;;5097297;28;20421;-58
2020/12/10 02:47:44;;;;;;;5.10;1.90;;;2.80;99.90;;;;;;5097283;28;20424;-58
2020/12/10 02:50:12;;;;;;;6.13;2.42;;;2.70;99.90;;;;;;5097573;28;20414;-59
2020/12/10 02:52:38;;;;;;;6.35;2.10;;;2.70;99.90;;;;;;5097544;28;20869;-58
2020/12/10 02:55:05;;;;;;;6.03;2.75;;;2.90;99.90;;;;;;5097383;28;20813;-58
2020/12/10 02:57:33;;;;;;;4.10;2.10;;;3.00;99.90;;;;;;5097238;28;20685;-59
2020/12/10 03:00:00;;;;;;;6.00;2.42;;;2.90;99.90;;;;;;5097206;28;20409;-59
2020/12/10 03:02:26;;;;;;;6.15;2.15;;;3.00;99.90;;;;;;5096701;28;20410;-58
2020/12/10 03:04:53;;;;;;;4.40;2.10;;;3.20;99.90;;;;;;5097258;28;20418;-59
2020/12/10 03:07:19;;;;;;;5.32;2.08;;;3.20;99.90;;;;;;5097131;28;20713;-58
2020/12/10 03:09:46;;;;;;;4.47;2.08;;;3.20;99.90;;;;;;5097688;28;20430;-58
2020/12/10 03:12:13;;;;;;;5.40;2.17;;;3.20;99.90;;;;;;5095946;28;20845;-59
2020/12/10 03:14:41;;;;;;;7.05;3.33;;;3.30;99.90;;;;;;5097195;28;20434;-59
2020/12/10 03:17:07;;;;;;;8.38;3.20;;;3.40;99.90;;;;;;5096363;28;20713;-59
2020/12/10 03:19:34;;;;;;;7.13;3.03;;;3.30;99.90;;;;;;5096943;28;20424;-59
2020/12/10 03:22:01;;;;;;;6.07;2.40;;;3.00;99.90;;;;;;5096521;28;20446;-58
2020/12/10 03:24:28;;;;;;;6.70;2.42;;;3.00;99.90;;;;;;5096723;28;20422;-58
2020/12/10 03:26:55;;;;;;;6.40;2.65;;;2.80;99.90;;;;;;5096703;28;20726;-58
2020/12/10 03:29:22;;;;;;;5.32;2.20;;;2.50;99.90;;;;;;5096777;28;20686;-59
2020/12/10 03:31:49;;;;;;;6.38;2.38;;;2.30;99.90;;;;;;5096371;28;20416;-58
2020/12/10 03:34:17;;;;;;;5.25;2.38;;;2.20;99.90;;;;;;5096535;28;20434;-58
2020/12/10 03:36:49;;;;;;;7.30;2.77;;;2.20;99.90;;;;;;5096667;28;20914;-59
2020/12/10 03:39:16;;;;;;;7.40;2.83;;;2.20;99.90;;;;;;5096803;28;20424;-58
2020/12/10 03:41:43;;;;;;;8.35;3.08;;;2.40;99.90;;;;;;5096320;28;20440;-59
2020/12/10 03:44:10;;;;;;;7.30;3.13;;;2.40;99.90;;;;;;5096465;28;20418;-58
2020/12/10 03:46:37;;;;;;;6.70;3.35;;;2.30;99.90;;;;;;5096893;28;20409;-59
2020/12/10 03:49:05;;;;;;;7.03;2.90;;;2.20;99.90;;;;;;5096104;28;20490;-59
2020/12/10 03:51:32;;;;;;;8.33;3.47;;;2.30;99.90;;;;;;5095482;28;20425;-59
2020/12/10 03:53:58;;;;;;;7.85;3.20;;;2.60;99.90;;;;;;5096195;28;20433;-59
2020/12/10 03:56:25;;;;;;;6.50;2.67;;;2.80;99.90;;;;;;5095075;28;20428;-59
2020/12/10 03:58:52;;;;;;;6.03;2.53;;;2.70;99.90;;;;;;5095804;28;20432;-59
2020/12/10 04:01:19;;;;;;;5.45;2.58;;;2.60;99.90;;;;;;5096416;28;20442;-59
2020/12/10 04:03:46;;;;;;;8.20;2.85;;;2.50;99.90;;;;;;5095625;28;20610;-59
2020/12/10 04:06:13;;;;;;;10.07;3.17;;;2.50;99.90;;;;;;5096309;28;20421;-59
2020/12/10 04:08:40;;;;;;;6.57;2.97;;;2.70;99.90;;;;;;5096104;28;20424;-59
2020/12/10 04:11:07;;;;;;;6.88;2.58;;;2.80;99.90;;;;;;5095164;28;20418;-58
2020/12/10 04:13:33;;;;;;;7.75;3.10;;;2.80;99.90;;;;;;5095259;28;20430;-58
2020/12/10 04:16:02;;;;;;;6.50;2.85;;;2.80;99.90;;;;;;5095990;28;20413;-59
2020/12/10 04:18:29;;;;;;;6.90;3.40;;;2.90;99.90;;;;;;5095647;28;20714;-59
2020/12/10 04:20:56;;;;;;;8.13;3.50;;;3.00;99.90;;;;;;5095892;28;20417;-59
2020/12/10 04:23:24;;;;;;;6.63;2.80;;;3.20;99.90;;;;;;5096040;28;20418;-59
2020/12/10 04:25:51;;;;;;;6.25;2.58;;;3.20;99.90;;;;;;5095615;28;20421;-59
2020/12/10 04:28:18;;;;;;;10.23;3.92;;;3.10;99.90;;;;;;5094937;28;20478;-59
2020/12/10 04:30:45;;;;;;;6.82;3.15;;;2.90;99.90;;;;;;5095047;28;20871;-58
2020/12/10 04:33:11;;;;;;;7.72;3.20;;;2.70;99.90;;;;;;5094964;28;20836;-59
2020/12/10 04:35:39;;;;;;;9.20;3.95;;;2.50;99.90;;;;;;5094681;28;20424;-59
2020/12/10 04:38:05;;;;;;;9.40;3.90;;;2.30;99.90;;;;;;5094545;28;20448;-59
2020/12/10 04:40:34;;;;;;;9.23;3.60;;;2.30;99.90;;;;;;5095074;28;20467;-59
2020/12/10 04:43:02;;;;;;;7.03;3.60;;;2.40;99.90;;;;;;5094896;28;20501;-58
2020/12/10 04:45:29;;;;;;;7.13;2.97;;;2.50;99.90;;;;;;5095167;28;20467;-59
2020/12/10 04:47:56;;;;;;;7.00;2.70;;;2.60;99.90;;;;;;5094700;28;20424;-59
2020/12/10 04:50:25;;;;;;;9.23;2.88;;;2.60;99.90;;;;;;5094694;28;20413;-58
2020/12/10 04:52:53;;;;;;;8.43;2.70;;;2.70;99.90;;;;;;5094916;28;20441;-58
2020/12/10 04:55:20;;;;;;;8.30;3.45;;;2.80;99.90;;;;;;5094554;28;20420;-58
2020/12/10 04:57:48;;;;;;;9.50;3.55;;;2.80;99.90;;;;;;5094426;28;20678;-58
2020/12/10 05:00:17;;;;;;;9.60;3.57;;;2.60;99.90;;;;;;5094659;28;20414;-58
2020/12/10 05:02:45;;;;;;;7.07;2.70;;;2.40;99.90;;;;;;5095140;28;20418;-58
2020/12/10 05:05:26;;;;;;;7.05;3.58;;;2.40;99.90;;;;;;5095004;28;20792;-58
2020/12/10 05:07:54;;;;;;;8.25;3.40;;;2.20;99.90;;;;;;5094012;28;20829;-59
2020/12/10 05:10:21;;;;;;;7.55;3.20;;;2.10;99.90;;;;;;5094268;28;20777;-58
2020/12/10 05:12:49;;;;;;;7.72;3.47;;;2.10;99.90;;;;;;5094203;28;20426;-58
2020/12/10 05:15:19;;;;;;;9.95;3.80;;;2.20;99.90;;;;;;5094356;28;20414;-59
2020/12/10 05:17:45;;;;;;;7.35;3.50;;;2.40;99.90;;;;;;5094568;28;20436;-58
2020/12/10 05:20:12;;;;;;;9.18;3.42;;;2.50;99.90;;;;;;5094220;28;20729;-59
2020/12/10 05:22:46;;;;;;;8.90;3.85;;;2.40;99.90;;;;;;5093620;28;20453;-58
2020/12/10 05:25:13;;;;;;;8.15;3.20;;;2.40;99.90;;;;;;5093385;28;20416;-58
2020/12/10 05:27:39;;;;;;;10.03;3.97;;;2.30;99.90;;;;;;5093441;28;20418;-58
2020/12/10 05:30:14;;;;;;;9.02;4.22;;;2.30;99.90;;;;;;5093403;28;20418;-58
2020/12/10 05:32:43;;;;;;;8.52;3.40;;;2.40;99.90;;;;;;5094393;28;20435;-58
2020/12/10 05:35:27;;;;;;;7.90;3.80;;;2.50;99.90;;;;;;5094114;28;20417;-58
2020/12/10 05:37:55;;;;;;;8.80;3.85;;;2.70;99.90;;;;;;5094359;28;20833;-58
2020/12/10 05:40:22;;;;;;;8.60;3.15;;;2.90;99.90;;;;;;5085732;28;20432;-58
2020/12/10 05:42:49;;;;;;;12.00;4.55;;;2.80;99.90;;;;;;5084608;28;20422;-59
2020/12/10 05:45:19;;;;;;;8.70;3.28;;;2.80;99.90;;;;;;5094083;28;20844;-58
2020/12/10 05:47:48;;;;;;;7.63;4.03;;;2.90;99.90;;;;;;5076383;28;20482;-58
2020/12/10 05:50:17;;;;;;;9.57;4.00;;;2.80;99.90;;;;;;5077588;28;20419;-58
2020/12/10 05:52:54;;;;;;;10.10;4.50;;;2.50;99.90;;;;;;5076102;28;20438;-58
2020/12/10 05:55:20;;;;;;;10.65;4.53;;;2.30;99.90;;;;;;5077546;28;20497;-58
2020/12/10 05:57:48;;;;;;;9.77;4.43;;;2.20;99.90;;;;;;5077689;28;20819;-58
2020/12/10 06:00:15;;;;;;;9.20;4.90;;;2.30;99.90;;;;;;5077605;28;20448;-58
2020/12/10 06:02:43;;;;;;;8.77;4.05;;;2.50;99.90;;;;;;5077757;28;20419;-58
2020/12/10 06:05:10;;;;;;;9.18;4.10;;;2.70;99.90;;;;;;5077292;28;20415;-58
2020/12/10 06:07:37;;;;;;;8.40;4.07;;;2.90;99.90;;;;;;5077196;28;20418;-58
2020/12/10 06:10:04;;;;;;;6.65;3.22;;;2.80;99.90;;;;;;5077374;28;20443;-59
2020/12/10 06:12:31;;;;;;;9.15;3.20;;;2.90;99.90;;;;;;5077376;28;20415;-58
2020/12/10 06:14:59;;;;;;;8.55;3.50;;;2.90;99.90;;;;;;5075946;28;20474;-59
2020/12/10 06:17:26;;;;;;;10.27;5.05;;;2.80;99.90;;;;;;5090067;28;20406;-57
2020/12/10 06:19:54;;;;;;;9.27;4.00;;;2.80;99.90;;;;;;5081048;28;20431;-59
2020/12/10 06:22:27;;;;;;;9.23;3.90;;;2.50;99.90;;;;;;5073583;28;20427;-59
2020/12/10 06:24:55;;;;;;;10.10;4.50;;;2.40;99.90;;;;;;5076244;28;20426;-59
2020/12/10 06:27:24;;;;;;;7.43;3.90;;;2.30;99.90;;;;;;5074447;28;20719;-59
2020/12/10 06:30:09;;;;;;;9.23;3.55;;;2.10;99.90;;;;;;5075876;28;20424;-59
2020/12/10 06:32:41;;;;;;;7.60;3.40;;;2.00;99.90;;;;;;5075278;28;20739;-58
2020/12/10 06:35:29;;;;;;;7.93;3.47;;;2.00;99.90;;;;;;5075177;28;20488;-59
2020/12/10 06:37:56;;;;;;;7.53;3.00;;;2.20;99.90;;;;;;5074987;28;20530;-57
2020/12/10 06:40:31;;;;;;;6.40;2.95;;;2.30;99.90;;;;;;5076422;28;20416;-58
2020/12/10 06:42:58;;;;;;;8.67;3.50;;;2.50;99.90;;;;;;5075622;28;20511;-58
2020/12/10 06:45:26;;;;;;;9.25;2.80;;;2.60;99.90;;;;;;5075410;28;20411;-58
2020/12/10 06:47:53;;;;;;;8.10;3.25;;;2.80;99.90;;;;;;5075689;28;20424;-58
2020/12/10 06:50:25;;;;;;;8.00;3.53;;;2.90;99.90;;;;;;5075153;28;20419;-58
2020/12/10 06:53:15;;;;;;;7.65;3.58;;;3.00;99.90;;;;;;5074695;28;20419;-58
2020/12/10 06:56:05;;;;;;;8.18;3.22;;;2.90;99.90;;;;;;5075709;28;20462;-58
2020/12/10 06:58:56;;;;;;;8.05;3.67;;;2.60;99.90;;;;;;5075069;28;20903;-59
2020/12/10 07:01:30;;;;;;;6.33;3.40;;;2.40;99.90;;;;;;5074695;28;20693;-58
2020/12/10 07:04:18;;;;;;;7.45;3.10;;;2.50;99.90;;;;;;5074433;28;20419;-59
2020/12/10 07:06:47;;;;;;;11.03;4.60;;;2.70;99.90;;;;;;5065767;28;20729;-59
2020/12/10 07:09:18;;;;;;;6.15;2.92;;;2.60;99.90;;;;;;5067056;28;20442;-59
2020/12/10 07:11:48;;;;;;;6.85;3.22;;;2.60;99.90;;;;;;5074385;28;20511;-59
2020/12/10 07:14:30;;;;;;;7.83;3.73;;;2.80;99.90;;;;;;5079489;28;20468;-59
2020/12/10 07:16:57;;;;;;;8.13;3.28;;;2.90;99.90;;;;;;5065462;28;20425;-59
2020/12/10 07:19:25;;;;;;;8.23;3.90;;;2.80;99.90;;;;;;5064320;28;20461;-59
2020/12/10 07:21:53;;;;;;;10.52;3.97;;;2.60;99.90;;;;;;5069126;28;20750;-58
2020/12/10 07:24:19;;;;;;;9.02;3.25;;;2.50;99.90;;;;;;5069324;28;20489;-59
2020/12/10 07:26:46;;;;;;;7.90;3.20;;;2.30;99.90;;;;;;5078410;28;20469;-58
2020/12/10 07:29:13;;;;;;;6.53;2.80;;;2.40;99.90;;;;;;5094623;28;20845;-59
2020/12/10 07:31:42;;;;;;;7.70;2.85;;;2.40;99.90;;;;;;5093151;28;20772;-59
2020/12/10 07:34:11;;;;;;;8.10;2.97;;;2.50;99.90;;;;;;5093614;28;20443;-59
2020/12/10 07:36:46;;;;;;;5.38;2.00;;;2.70;99.90;;;;;;5084657;28;20427;-59
2020/12/10 07:39:26;;;;;;;7.30;3.28;;;3.10;99.90;;;;;;5073533;28;20811;-59
2020/12/10 07:41:53;;;;;;;5.72;2.50;;;3.10;99.90;;;;;;5073626;28;20420;-59
2020/12/10 07:44:26;;;;;;;7.20;2.90;;;3.10;99.90;;;;;;5073675;28;20424;-59
2020/12/10 07:46:52;;;;;;;7.13;2.70;;;3.00;99.90;;;;;;5077397;28;20433;-59
2020/12/10 07:49:27;;;;;;;8.82;3.35;;;2.70;99.90;;;;;;5083778;28;20432;-59
2020/12/10 07:52:05;;;;;;;7.93;3.13;;;2.60;99.90;;;;;;5070370;28;20752;-59
2020/12/10 07:54:47;;;;;;;6.63;3.25;;;2.50;99.90;;;;;;5070770;28;20493;-58
2020/12/10 07:57:27;;;;;;;9.33;3.60;;;2.50;99.90;;;;;;5081554;28;20701;-57
2020/12/10 08:00:00;;;;;;;7.20;2.50;;;2.50;99.90;;;;;;5082057;28;20420;-57
2020/12/10 08:02:47;;;;;;;7.95;2.95;;;2.50;99.90;;;;;;5093860;28;20442;-56
2020/12/10 08:05:15;;;;;;;7.13;2.50;;;2.70;99.90;;;;;;5075872;28;20443;-57
2020/12/10 08:07:46;;;;;;;6.93;2.15;;;2.80;99.90;;;;;;5075137;28;20510;-57
2020/12/10 08:10:21;;;;;;;6.10;2.17;;;2.90;99.90;;;;;;5082807;28;20434;-57
2020/12/10 08:13:10;;;;;;;6.95;3.20;;;2.90;99.90;;;;;;5065236;28;20432;-59
2020/12/10 08:15:37;;;;;;;6.57;2.53;;;2.70;99.90;;;;;;5080952;28;20461;-59
2020/12/10 08:18:04;;;;;;;7.80;3.20;;;2.70;99.90;;;;;;5076632;28;20508;-59
2020/12/10 08:20:40;;;;;;;6.60;2.58;;;2.70;99.90;;;;;;5070880;28;20436;-59
2020/12/10 08:23:07;;;;;;;8.02;3.30;;;2.70;99.90;;;;;;5072282;28;20484;-59
2020/12/10 08:25:35;;;;;;;7.22;3.38;;;2.60;99.90;;;;;;5065065;28;20419;-59
2020/12/10 08:28:04;;;;;;;9.18;3.65;;;2.70;99.90;;;;;;5066883;28;20457;-59
2020/12/10 08:30:31;;;;;;;8.27;2.90;;;2.60;99.90;;;;;;5071045;28;20426;-60
2020/12/10 08:32:59;;;;;;;5.80;2.77;;;2.50;99.90;;;;;;5069939;28;20427;-58
2020/12/10 08:35:26;;;;;;;6.90;3.50;;;2.60;99.90;;;;;;5069031;28;20435;-58
2020/12/10 08:37:53;;;;;;;4.25;1.60;;;2.70;99.90;;;;;;5071942;28;20439;-59
2020/12/10 08:40:25;;;;;;;7.57;2.33;;;2.80;99.90;;;;;;5071730;28;20734;-58
2020/12/10 08:42:54;;;;;;;3.47;1.80;;;2.70;99.90;;;;;;5072823;28;20510;-59
2020/12/10 08:45:43;;;;;;;6.38;2.90;;;2.70;99.90;;;;;;5071602;28;20422;-58
2020/12/10 08:48:10;;;;;;;5.00;2.13;;;2.70;99.90;;;;;;5072866;28;20432;-58
2020/12/10 08:50:49;;;;;;;8.65;3.40;;;2.80;99.90;;;;;;5072789;28;20422;-58
2020/12/10 08:53:15;;;;;;;7.88;2.00;;;2.90;99.90;;;;;;5072318;28;20886;-57
2020/12/10 08:55:44;;;;;;;4.38;1.63;;;2.90;99.90;;;;;;5071843;28;20431;-58
2020/12/10 08:58:16;;;;;;;3.88;1.58;;;3.00;99.90;;;;;;5072621;28;20535;-58
2020/12/10 09:00:43;;;;;;;2.25;0.93;;;2.90;99.90;;;;;;5072750;28;20414;-57
2020/12/10 09:03:10;;;;;;;2.58;1.00;;;2.80;99.90;;;;;;5071606;28;20525;-58
2020/12/10 09:05:39;;;;;;;2.28;0.90;;;2.70;99.90;;;;;;5070182;28;20877;-58
2020/12/10 09:08:06;;;;;;;2.20;1.10;;;2.70;99.90;;;;;;5070331;28;20876;-58
2020/12/10 09:10:33;;;;;;;3.75;1.30;;;2.50;99.90;;;;;;5069824;28;20419;-58
2020/12/10 09:13:00;;;;;;;2.50;1.10;;;2.50;99.90;;;;;;5066095;28;20438;-58
2020/12/10 09:15:28;;;;;;;3.88;1.50;;;2.40;99.90;;;;;;5071952;28;20808;-58
2020/12/10 09:17:55;;;;;;;4.93;2.10;;;2.40;99.90;;;;;;5079704;28;20559;-58
2020/12/10 09:20:23;;;;;;;4.50;1.70;;;2.50;99.90;;;;;;5090180;28;20414;-58
2020/12/10 09:22:49;;;;;;;4.40;1.70;;;2.50;99.90;;;;;;5073507;28;20438;-57
2020/12/10 09:25:16;;;;;;;5.10;2.03;;;2.50;99.90;;;;;;5070729;28;20437;-58
2020/12/10 09:27:43;;;;;;;4.28;1.50;;;2.70;99.90;;;;;;5071452;28;20813;-58
2020/12/10 09:30:11;;;;;;;2.90;1.60;;;2.80;99.90;;;;;;5070744;28;20416;-58
2020/12/10 09:32:41;;;;;;;4.07;1.90;;;2.80;99.90;;;;;;5072223;28;20473;-59
2020/12/10 09:35:11;;;;;;;3.70;1.30;;;2.80;99.90;;;;;;5070771;28;20711;-58
2020/12/10 09:37:38;;;;;;;1.75;1.00;;;2.70;99.90;;;;;;5069848;28;20924;-58
2020/12/10 09:40:08;;;;;;;2.63;1.10;;;2.70;99.90;;;;;;5070646;28;20715;-59
2020/12/10 09:42:38;;;;;;;1.45;0.80;;;2.70;99.90;;;;;;5068959;28;20427;-59
2020/12/10 09:45:05;;;;;;;2.80;1.00;;;2.80;99.90;;;;;;5060516;28;20425;-58
2020/12/10 09:47:32;;;;;;;2.40;0.90;;;2.80;99.90;;;;;;5050821;28;20432;-58
2020/12/10 09:50:00;;;;;;;2.97;1.10;;;2.80;99.90;;;;;;5050040;28;20409;-57
2020/12/10 09:52:28;;;;;;;1.90;1.00;;;2.80;99.90;;;;;;5049341;28;20829;-59
2020/12/10 09:55:09;;;;;;;1.80;1.00;;;3.00;99.90;;;;;;5050511;28;20518;-56
2020/12/10 09:57:35;;;;;;;1.88;1.00;;;3.20;99.90;;;;;;5050191;28;20457;-60
2020/12/10 10:00:07;;;;;;;2.90;1.10;;;3.20;99.90;;;;;;5050790;28;20531;-59
2020/12/10 10:02:33;;;;;;;2.40;1.10;;;3.20;99.90;;;;;;5052028;28;20429;-61
2020/12/10 10:05:01;;;;;;;1.70;1.05;;;3.30;99.90;;;;;;5072436;28;20859;-61
2020/12/10 10:07:28;;;;;;;2.15;1.00;;;3.20;99.90;;;;;;5090412;28;20454;-60
2020/12/10 10:09:58;;;;;;;1.58;1.00;;;3.10;99.90;;;;;;5076032;28;20420;-61
2020/12/10 10:12:26;;;;;;;3.20;1.30;;;3.20;99.90;;;;;;5073218;28;20431;-61
2020/12/10 10:14:53;;;;;;;2.90;1.20;;;3.30;99.90;;;;;;5073032;28;20522;-61
2020/12/10 10:17:21;;;;;;;3.33;1.20;;;3.50;99.90;;;;;;5074141;28;20774;-61
2020/12/10 10:19:48;;;;;;;2.63;1.00;;;3.50;99.90;;;;;;5079760;28;20455;-61
2020/12/10 10:22:17;;;;;;;3.10;1.13;;;3.50;99.90;;;;;;5082877;28;20419;-61
2020/12/10 10:24:44;;;;;;;2.77;1.10;;;3.60;99.90;;;;;;5072040;28;20427;-62
2020/12/10 10:27:11;;;;;;;3.10;1.00;;;3.40;99.90;;;;;;5072087;28;20510;-61
2020/12/10 10:29:38;;;;;;;3.05;1.20;;;3.00;99.90;;;;;;5072107;28;20435;-62
2020/12/10 10:32:07;;;;;;;3.20;1.20;;;3.10;99.90;;;;;;5071377;28;20435;-62
2020/12/10 10:34:34;;;;;;;3.17;1.00;;;3.20;99.90;;;;;;5073198;28;20435;-63
2020/12/10 10:37:00;;;;;;;3.40;1.10;;;3.30;99.90;;;;;;5073386;28;21044;-63
2020/12/10 10:39:28;;;;;;;3.10;1.20;;;3.20;99.90;;;;;;5073958;28;20433;-63
2020/12/10 10:41:55;;;;;;;2.95;1.30;;;3.30;99.90;;;;;;5073980;28;20513;-63
2020/12/10 10:44:22;;;;;;;2.47;1.10;;;3.30;99.90;;;;;;5074707;28;20442;-62
2020/12/10 10:46:49;;;;;;;2.40;1.20;;;3.30;99.90;;;;;;5075658;28;20457;-62
2020/12/10 10:49:17;;;;;;;2.25;1.20;;;3.30;99.90;;;;;;5074336;28;20526;-62
2020/12/10 10:51:47;;;;;;;3.77;1.57;;;3.20;99.90;;;;;;5074608;28;20510;-62
2020/12/10 10:54:14;;;;;;;3.08;1.10;;;3.20;99.90;;;;;;5072174;28;20530;-62
2020/12/10 10:56:42;;;;;;;2.30;1.10;;;3.30;99.90;;;;;;5074703;28;20498;-62
2020/12/10 10:59:09;;;;;;;3.30;1.20;;;3.40;99.90;;;;;;5080616;28;20516;-62
2020/12/10 11:01:36;;;;;;;3.53;1.40;;;3.40;99.90;;;;;;5072455;28;20428;-62
2020/12/10 11:04:03;;;;;;;3.80;1.58;;;3.30;99.90;;;;;;5068075;28;21118;-63
2020/12/10 11:06:29;;;;;;;3.50;1.20;;;3.40;99.90;;;;;;5072233;28;20542;-63
2020/12/10 11:08:56;;;;;;;3.85;2.13;;;3.40;99.90;;;;;;5061766;28;20527;-61
2020/12/10 11:11:24;;;;;;;3.97;1.40;;;3.30;99.90;;;;;;5057453;28;20442;-61
2020/12/10 11:13:52;;;;;;;3.72;1.40;;;3.40;99.90;;;;;;5074348;28;20520;-60
2020/12/10 11:16:18;;;;;;;6.25;2.65;;;3.30;99.90;;;;;;5073467;28;20424;-60
2020/12/10 11:18:46;;;;;;;3.45;2.00;;;3.30;99.90;;;;;;5074162;28;20993;-62
2020/12/10 11:21:13;;;;;;;17.83;8.63;;;3.20;99.90;;;;;;5063341;28;20519;-61
2020/12/10 11:23:41;;;;;;;5.30;2.08;;;3.40;99.90;;;;;;5054636;28;20429;-62
2020/12/10 11:26:08;;;;;;;6.90;2.20;;;3.60;99.90;;;;;;5054606;28;20483;-60
2020/12/10 11:28:36;;;;;;;4.60;2.00;;;3.60;99.90;;;;;;5070985;28;20575;-60
2020/12/10 11:31:04;;;;;;;3.83;1.73;;;3.60;99.90;;;;;;5074321;28;20874;-61
2020/12/10 11:33:31;;;;;;;7.75;2.50;;;3.50;99.90;;;;;;5073738;28;20459;-61
2020/12/10 11:36:01;;;;;;;4.70;2.15;;;3.50;99.90;;;;;;5074270;28;20531;-60
2020/12/10 11:38:27;;;;;;;3.67;1.80;;;3.60;99.90;;;;;;5074531;28;20514;-61
2020/12/10 11:40:54;;;;;;;4.80;1.98;;;3.80;99.90;;;;;;5073301;28;20415;-60
2020/12/10 11:43:21;;;;;;;4.35;1.80;;;3.80;99.90;;;;;;5073176;28;20927;-61
2020/12/10 11:45:48;;;;;;;4.03;1.50;;;3.50;99.90;;;;;;5074701;28;20841;-60
2020/12/10 11:48:15;;;;;;;3.23;1.50;;;3.60;99.90;;;;;;5071745;28;21129;-60
2020/12/10 11:50:43;;;;;;;4.78;1.80;;;3.50;99.90;;;;;;5074456;28;20505;-60
2020/12/10 11:53:10;;;;;;;5.28;1.50;;;3.50;99.90;;;;;;5069658;28;20427;-61
2020/12/10 11:55:37;;;;;;;7.47;2.60;;;3.60;99.90;;;;;;5073179;28;20826;-60
2020/12/10 11:58:04;;;;;;;5.50;1.90;;;3.70;99.90;;;;;;5072821;28;20789;-60
2020/12/10 12:00:31;;;;;;;5.05;2.15;;;3.80;99.90;;;;;;5072159;28;20518;-61
2020/12/10 12:02:57;;;;;;;3.92;1.63;;;3.70;99.90;;;;;;5073125;28;21048;-60
2020/12/10 12:05:25;;;;;;;4.82;1.70;;;3.60;99.90;;;;;;5072859;28;20850;-61
2020/12/10 12:07:54;;;;;;;5.45;2.08;;;3.60;99.90;;;;;;5073266;28;20806;-60
2020/12/10 12:10:21;;;;;;;6.40;2.07;;;3.50;99.90;;;;;;5073139;28;20901;-61
2020/12/10 12:12:48;;;;;;;4.75;1.80;;;3.40;99.90;;;;;;5068248;28;20814;-62
2020/12/10 12:15:15;;;;;;;4.47;1.88;;;3.80;99.90;;;;;;5075678;28;20450;-61
2020/12/10 12:17:44;;;;;;;3.35;1.30;;;4.00;99.90;;;;;;5072628;28;20415;-59
2020/12/10 12:20:12;;;;;;;3.88;1.70;;;4.10;99.90;;;;;;5075248;28;20453;-60
2020/12/10 12:22:40;;;;;;;4.20;1.90;;;4.10;99.90;;;;;;5072675;28;20451;-60
2020/12/10 12:25:07;;;;;;;4.32;2.10;;;3.70;99.90;;;;;;5069414;28;20437;-60
2020/12/10 12:27:36;;;;;;;5.40;2.17;;;3.60;99.90;;;;;;5061764;28;20447;-60
2020/12/10 12:30:04;;;;;;;3.53;1.40;;;3.70;99.90;;;;;;5078429;28;20633;-60
2020/12/10 12:32:31;;;;;;;5.75;1.77;;;3.70;99.90;;;;;;5068648;28;20427;-60
2020/12/10 12:34:58;;;;;;;5.45;2.00;;;3.80;99.90;;;;;;5071434;28;20875;-60
2020/12/10 12:37:26;;;;;;;6.20;2.17;;;3.70;99.90;;;;;;5071890;28;20432;-61
2020/12/10 12:39:54;;;;;;;4.07;1.80;;;3.80;99.90;;;;;;5072138;28;20428;-60
2020/12/10 12:42:22;;;;;;;4.70;1.80;;;3.80;99.90;;;;;;5072140;28;20418;-60
2020/12/10 12:44:50;;;;;;;4.18;1.90;;;3.80;99.90;;;;;;5072149;28;20424;-60
2020/12/10 12:47:17;;;;;;;5.72;2.03;;;3.80;99.90;;;;;;5072732;28;20440;-61
2020/12/10 12:49:44;;;;;;;6.10;2.15;;;3.70;99.90;;;;;;5071480;28;20427;-61
2020/12/10 12:52:10;;;;;;;6.22;1.65;;;3.70;99.90;;;;;;5073134;28;20443;-60
2020/12/10 12:54:37;;;;;;;4.32;2.03;;;3.70;99.90;;;;;;5072470;28;20731;-59
2020/12/10 12:57:05;;;;;;;6.93;2.13;;;3.60;99.90;;;;;;5071980;28;20878;-60
2020/12/10 12:59:33;;;;;;;4.18;1.50;;;3.70;99.90;;;;;;5071544;28;20862;-61
2020/12/10 13:02:01;;;;;;;3.90;1.90;;;3.70;99.90;;;;;;5070105;28;20431;-60
2020/12/10 13:04:28;;;;;;;5.60;2.40;;;3.70;99.90;;;;;;5072552;28;20791;-61